Time;durP1;ratioP1;P1;durP2;ratioP2;P2;SDS_P1;SDS_P2;PMS_P1;PMS_P2;Temp;Humidity;BMP_temperature;BMP_pressure;BME280_temperature;BME280_humidity;BME280_pressure;Samples;Min_cycle;Max_cycle;Signal;HPM_P1;HPM_P2
2021/04/25 00:01:10;;;;;;;9.60;4.73;;;12.00;73.40;;;;;;5063149;28;20480;-88
2021/04/25 00:03:36;;;;;;;8.70;4.10;;;11.90;74.00;;;;;;5075520;28;20492;-85
2021/04/25 00:06:03;;;;;;;8.57;4.07;;;11.90;74.20;;;;;;5076536;28;20455;-83
2021/04/25 00:08:30;;;;;;;11.23;4.00;;;11.80;74.90;;;;;;5065359;28;20532;-86
2021/04/25 00:10:56;;;;;;;12.27;4.07;;;11.80;74.90;;;;;;5059243;28;20556;-85
2021/04/25 00:13:23;;;;;;;9.70;4.33;;;11.60;75.50;;;;;;5071309;28;21077;-86
2021/04/25 00:15:50;;;;;;;8.20;4.30;;;11.60;76.00;;;;;;5058895;28;20473;-85
2021/04/25 00:18:16;;;;;;;7.67;4.60;;;11.50;76.30;;;;;;5059620;28;20427;-86
2021/04/25 00:20:43;;;;;;;8.60;4.93;;;11.50;76.70;;;;;;5058992;28;20459;-85
2021/04/25 00:23:09;;;;;;;8.13;4.13;;;11.40;77.10;;;;;;5085706;28;20515;-86
2021/04/25 00:25:35;;;;;;;10.50;5.03;;;11.30;77.70;;;;;;5085910;28;20564;-84
2021/04/25 00:28:02;;;;;;;8.13;4.63;;;11.30;78.40;;;;;;5091490;28;20448;-85
2021/04/25 00:30:28;;;;;;;7.80;4.20;;;11.40;78.10;;;;;;5075446;28;20452;-85
2021/04/25 00:32:56;;;;;;;6.17;4.23;;;11.30;78.20;;;;;;5071540;28;20536;-87
2021/04/25 00:35:22;;;;;;;7.83;4.47;;;11.40;78.50;;;;;;5065312;28;20458;-84
2021/04/25 00:37:49;;;;;;;7.37;3.93;;;11.40;78.20;;;;;;5061911;28;20922;-85
2021/04/25 00:40:17;;;;;;;11.40;4.40;;;11.30;78.60;;;;;;5056953;28;20451;-84
2021/04/25 00:42:44;;;;;;;10.57;4.73;;;11.30;79.40;;;;;;5056754;28;20479;-84
2021/04/25 00:45:12;;;;;;;10.70;5.30;;;11.20;79.40;;;;;;5056941;28;20467;-85
2021/04/25 00:47:39;;;;;;;7.00;4.60;;;11.20;79.70;;;;;;5054714;28;20999;-84
2021/04/25 00:50:07;;;;;;;9.00;4.83;;;11.10;79.90;;;;;;5071203;28;20524;-86
2021/04/25 00:52:36;;;;;;;6.90;3.93;;;10.90;80.50;;;;;;5059022;28;20931;-84
2021/04/25 00:55:04;;;;;;;7.70;4.67;;;11.00;80.90;;;;;;5053955;28;20537;-86
2021/04/25 00:57:30;;;;;;;8.53;5.03;;;10.90;80.90;;;;;;5054323;28;20533;-84
2021/04/25 00:59:57;;;;;;;7.30;4.77;;;10.80;81.40;;;;;;5054266;28;20453;-85
2021/04/25 01:02:25;;;;;;;6.80;3.70;;;10.90;81.70;;;;;;5057392;28;20480;-87
2021/04/25 01:04:52;;;;;;;9.00;4.27;;;10.90;82.60;;;;;;5057239;28;20481;-85
2021/04/25 01:07:19;;;;;;;6.53;4.10;;;11.00;81.70;;;;;;5056708;28;20485;-85
2021/04/25 01:09:46;;;;;;;11.97;4.03;;;10.90;81.70;;;;;;5056153;28;20427;-85
2021/04/25 01:12:13;;;;;;;9.73;4.97;;;10.90;82.00;;;;;;5056716;28;20472;-86
2021/04/25 01:14:39;;;;;;;7.07;3.63;;;10.90;82.30;;;;;;5061271;28;20514;-85
2021/04/25 01:17:06;;;;;;;11.60;4.40;;;10.80;82.80;;;;;;5060265;28;20426;-85
2021/04/25 01:19:32;;;;;;;8.07;4.00;;;10.70;83.40;;;;;;5076198;28;20659;-85
2021/04/25 01:22:00;;;;;;;9.73;4.70;;;10.60;84.00;;;;;;5076013;28;20503;-85
2021/04/25 01:24:26;;;;;;;8.43;4.63;;;10.70;84.40;;;;;;5084720;28;20463;-86
2021/04/25 01:26:52;;;;;;;8.77;4.20;;;10.50;84.50;;;;;;5103401;28;20483;-84
2021/04/25 01:29:19;;;;;;;8.80;4.20;;;10.50;84.90;;;;;;5096185;28;20886;-85
2021/04/25 01:31:45;;;;;;;7.67;4.23;;;10.60;85.10;;;;;;5096680;28;20459;-84
2021/04/25 01:34:11;;;;;;;10.07;4.43;;;10.60;85.90;;;;;;5081113;28;20520;-89
2021/04/25 01:36:38;;;;;;;6.87;4.20;;;10.70;85.00;;;;;;5074287;28;20547;-88
2021/04/25 01:39:06;;;;;;;6.63;4.20;;;10.80;84.30;;;;;;5075521;28;20431;-85
2021/04/25 01:41:32;;;;;;;11.83;4.63;;;10.80;84.50;;;;;;5076322;28;20585;-88
2021/04/25 01:43:59;;;;;;;8.30;4.50;;;10.70;84.90;;;;;;5076874;28;20468;-85
2021/04/25 01:46:25;;;;;;;8.67;4.63;;;10.60;85.50;;;;;;5079446;28;20561;-85
2021/04/25 01:48:51;;;;;;;8.40;4.47;;;10.40;85.70;;;;;;5076521;28;20523;-87
2021/04/25 01:51:18;;;;;;;10.47;4.50;;;10.40;86.70;;;;;;5075340;28;20559;-86
2021/04/25 01:53:44;;;;;;;6.20;3.80;;;10.40;86.70;;;;;;5082930;28;20902;-86
2021/04/25 01:56:11;;;;;;;8.93;5.30;;;10.60;86.30;;;;;;5074988;28;20472;-87
2021/04/25 01:58:38;;;;;;;8.30;5.20;;;10.40;86.60;;;;;;5075632;28;20473;-86
2021/04/25 02:01:05;;;;;;;7.90;4.70;;;10.40;87.00;;;;;;5075085;28;20458;-86
2021/04/25 02:03:32;;;;;;;8.23;4.63;;;10.30;87.70;;;;;;5075957;28;20514;-85
2021/04/25 02:05:58;;;;;;;9.40;4.40;;;10.40;87.60;;;;;;5067827;28;20813;-87
2021/04/25 02:08:24;;;;;;;13.90;4.60;;;10.20;88.00;;;;;;5073569;28;20472;-87
2021/04/25 02:10:51;;;;;;;7.17;4.70;;;10.10;88.80;;;;;;5062250;28;20465;-86
2021/04/25 02:13:19;;;;;;;9.20;4.50;;;10.30;88.40;;;;;;5056677;28;20477;-86
2021/04/25 02:15:45;;;;;;;10.07;4.83;;;10.30;88.60;;;;;;5075305;28;20502;-87
2021/04/25 02:18:12;;;;;;;10.57;5.00;;;10.10;88.90;;;;;;5075492;28;20444;-85
2021/04/25 02:20:39;;;;;;;13.33;5.40;;;10.00;90.00;;;;;;5074969;28;20452;-86
2021/04/25 02:23:05;;;;;;;8.33;4.80;;;9.90;90.90;;;;;;5069324;28;20477;-85
2021/04/25 02:25:32;;;;;;;8.33;4.77;;;9.90;91.10;;;;;;5076205;28;20980;-85
2021/04/25 02:27:58;;;;;;;11.53;5.90;;;9.90;91.00;;;;;;5076391;28;20452;-85
2021/04/25 02:30:28;;;;;;;7.47;4.60;;;9.90;91.20;;;;;;5076029;28;20550;-86
2021/04/25 02:32:56;;;;;;;8.40;4.90;;;10.00;90.50;;;;;;5074984;28;20510;-87
2021/04/25 02:35:23;;;;;;;10.37;4.60;;;10.00;90.70;;;;;;5075046;28;20463;-86
2021/04/25 02:37:51;;;;;;;9.60;5.23;;;10.10;90.40;;;;;;5075315;28;20483;-87
2021/04/25 02:40:20;;;;;;;8.20;5.00;;;10.10;90.40;;;;;;5065238;28;20502;-87
2021/04/25 02:42:47;;;;;;;8.77;5.23;;;10.00;90.70;;;;;;5055832;28;20473;-87
2021/04/25 02:45:16;;;;;;;8.87;5.37;;;10.10;90.80;;;;;;5057549;28;20455;-86
2021/04/25 02:47:45;;;;;;;7.63;5.00;;;10.10;90.70;;;;;;5061162;28;20449;-87
2021/04/25 02:50:13;;;;;;;8.70;4.50;;;10.10;90.40;;;;;;5076504;28;20447;-87
2021/04/25 02:52:39;;;;;;;8.03;4.40;;;10.00;90.80;;;;;;5063170;28;20973;-87
2021/04/25 02:55:07;;;;;;;11.03;5.03;;;10.00;90.90;;;;;;5058964;28;20462;-87
2021/04/25 02:57:33;;;;;;;7.77;4.47;;;10.10;90.90;;;;;;5061071;28;20810;-87
2021/04/25 02:59:59;;;;;;;9.20;5.27;;;10.10;90.80;;;;;;5085548;28;20479;-84
2021/04/25 03:02:26;;;;;;;11.40;5.10;;;9.90;91.40;;;;;;5087086;28;20594;-87
2021/04/25 03:04:53;;;;;;;7.00;4.43;;;9.80;91.90;;;;;;5082057;28;20556;-87
2021/04/25 03:07:19;;;;;;;7.13;4.80;;;9.80;92.00;;;;;;5083581;28;20510;-84
2021/04/25 03:09:46;;;;;;;7.73;4.80;;;9.90;92.00;;;;;;5087596;28;20523;-87
2021/04/25 03:12:12;;;;;;;10.13;5.07;;;10.00;91.10;;;;;;5070814;28;20556;-87
2021/04/25 03:14:38;;;;;;;9.27;5.10;;;10.00;91.00;;;;;;5076644;28;20464;-87
2021/04/25 03:17:05;;;;;;;10.10;4.47;;;10.00;91.20;;;;;;5087344;28;20490;-87
2021/04/25 03:19:31;;;;;;;7.40;4.63;;;10.10;91.10;;;;;;5079084;28;20547;-87
2021/04/25 03:21:58;;;;;;;7.30;4.43;;;10.00;91.10;;;;;;5075519;28;20498;-87
2021/04/25 03:24:25;;;;;;;9.30;4.63;;;9.80;92.00;;;;;;5078293;28;20517;-86
2021/04/25 03:26:51;;;;;;;8.47;4.67;;;9.70;92.90;;;;;;5093329;28;20499;-85
2021/04/25 03:29:17;;;;;;;8.30;4.90;;;9.60;93.20;;;;;;5090113;28;20898;-85
2021/04/25 03:31:44;;;;;;;8.53;5.10;;;9.60;93.60;;;;;;5076724;28;20974;-86
2021/04/25 03:34:10;;;;;;;8.00;4.80;;;9.50;94.00;;;;;;5084548;28;20427;-85
2021/04/25 03:36:37;;;;;;;8.37;4.67;;;9.70;93.90;;;;;;5094469;28;20578;-85
2021/04/25 03:39:05;;;;;;;8.90;4.67;;;9.60;93.80;;;;;;5091877;28;20452;-85
2021/04/25 03:41:32;;;;;;;8.10;4.90;;;9.40;94.10;;;;;;5074923;28;20475;-85
2021/04/25 03:43:58;;;;;;;12.10;5.30;;;9.30;94.60;;;;;;5073451;28;20447;-87
2021/04/25 03:46:25;;;;;;;24.53;4.93;;;9.20;94.90;;;;;;5073523;28;21009;-86
2021/04/25 03:48:51;;;;;;;9.00;4.60;;;9.20;95.20;;;;;;5072632;28;20477;-86
2021/04/25 03:51:17;;;;;;;7.73;5.20;;;9.10;95.50;;;;;;5074242;28;20620;-87
2021/04/25 03:53:44;;;;;;;8.43;4.60;;;9.10;95.90;;;;;;5070445;28;20517;-86
2021/04/25 03:56:11;;;;;;;9.00;4.90;;;9.10;96.00;;;;;;5055451;28;20446;-86
2021/04/25 03:58:38;;;;;;;7.70;4.67;;;9.10;96.10;;;;;;5052940;28;20466;-86
2021/04/25 04:01:04;;;;;;;8.00;4.67;;;9.20;96.20;;;;;;5053814;28;20563;-87
2021/04/25 04:03:30;;;;;;;9.67;5.40;;;9.10;96.10;;;;;;5054301;28;20459;-87
2021/04/25 04:05:57;;;;;;;11.20;4.97;;;9.10;96.40;;;;;;5054614;28;20579;-85
2021/04/25 04:08:23;;;;;;;7.70;4.53;;;9.10;96.50;;;;;;5069123;28;20479;-85
2021/04/25 04:10:49;;;;;;;14.70;6.40;;;9.30;96.70;;;;;;5076098;28;20533;-85
2021/04/25 04:13:17;;;;;;;8.70;5.17;;;9.00;96.80;;;;;;5075399;28;20490;-85
2021/04/25 04:15:43;;;;;;;9.63;5.03;;;9.00;97.00;;;;;;5056924;28;20481;-86
2021/04/25 04:18:09;;;;;;;7.63;4.80;;;8.90;97.20;;;;;;5056683;28;20437;-87
2021/04/25 04:20:36;;;;;;;8.47;4.80;;;8.90;97.30;;;;;;5056243;28;20997;-86
2021/04/25 04:23:03;;;;;;;8.13;5.23;;;8.90;97.50;;;;;;5087468;28;20456;-85
2021/04/25 04:25:29;;;;;;;10.53;5.27;;;8.80;97.60;;;;;;5078764;28;20518;-85
2021/04/25 04:27:56;;;;;;;8.93;5.67;;;8.80;97.70;;;;;;5076508;28;20449;-85
2021/04/25 04:30:23;;;;;;;10.43;5.67;;;8.80;97.40;;;;;;5076259;28;20453;-86
2021/04/25 04:32:50;;;;;;;11.73;5.50;;;8.60;97.10;;;;;;5076343;28;20558;-86
2021/04/25 04:35:16;;;;;;;8.90;4.90;;;9.00;97.20;;;;;;5076200;28;20768;-85
2021/04/25 04:37:42;;;;;;;8.90;5.70;;;9.00;97.70;;;;;;5075173;28;20479;-85
2021/04/25 04:40:10;;;;;;;7.90;4.80;;;8.90;97.90;;;;;;5075128;28;20513;-85
2021/04/25 04:42:37;;;;;;;10.27;5.10;;;8.90;98.10;;;;;;5074875;28;20527;-85
2021/04/25 04:45:05;;;;;;;11.63;5.30;;;8.80;98.30;;;;;;5075098;28;20482;-85
2021/04/25 04:47:32;;;;;;;11.13;4.80;;;8.80;98.60;;;;;;5079680;28;20571;-85
2021/04/25 04:49:58;;;;;;;7.13;5.00;;;8.60;98.60;;;;;;5074893;28;20974;-85
2021/04/25 04:52:25;;;;;;;10.00;5.20;;;8.60;99.00;;;;;;5079466;22;20603;-80
2021/04/25 04:54:51;;;;;;;8.97;4.50;;;8.70;99.10;;;;;;5054928;28;20441;-80
2021/04/25 04:57:17;;;;;;;8.80;4.83;;;8.70;99.30;;;;;;5054472;28;20531;-80
2021/04/25 04:59:44;;;;;;;11.53;6.73;;;8.70;99.20;;;;;;5054817;28;20586;-80
2021/04/25 05:02:10;;;;;;;9.90;4.63;;;8.70;98.80;;;;;;5055040;28;20486;-80
2021/04/25 05:04:37;;;;;;;9.37;5.87;;;8.50;98.80;;;;;;5036606;28;20537;-80
2021/04/25 05:07:04;;;;;;;11.33;5.43;;;8.60;99.10;;;;;;5035160;28;20572;-80
2021/04/25 05:09:31;;;;;;;8.57;5.53;;;8.70;99.50;;;;;;5035274;28;20540;-80
2021/04/25 05:11:57;;;;;;;10.90;5.40;;;8.90;99.50;;;;;;5034967;28;20556;-80
2021/04/25 05:14:24;;;;;;;13.43;5.93;;;8.80;99.30;;;;;;5044133;28;20516;-80
2021/04/25 05:16:50;;;;;;;8.73;5.30;;;8.90;99.30;;;;;;5046238;28;20538;-80
2021/04/25 05:19:17;;;;;;;10.90;5.93;;;8.70;99.00;;;;;;5014569;28;20531;-80
2021/04/25 05:21:44;;;;;;;8.57;5.03;;;9.00;99.30;;;;;;5015481;28;20541;-80
2021/04/25 05:24:11;;;;;;;9.20;5.20;;;8.90;99.10;;;;;;5049809;28;20536;-80
2021/04/25 05:26:37;;;;;;;11.30;6.40;;;8.90;99.10;;;;;;5054128;28;20489;-80
2021/04/25 05:29:04;;;;;;;11.67;6.47;;;8.70;98.80;;;;;;5054115;28;20481;-81
2021/04/25 05:31:31;;;;;;;9.10;6.20;;;9.00;98.90;;;;;;5033918;28;20956;-80
2021/04/25 05:33:57;;;;;;;9.63;5.90;;;9.00;99.00;;;;;;5015031;28;20936;-80
2021/04/25 05:36:24;;;;;;;13.83;6.80;;;8.70;99.00;;;;;;5016206;28;20999;-80
2021/04/25 05:38:51;;;;;;;10.70;6.00;;;9.00;99.10;;;;;;5021221;28;20534;-80
2021/04/25 05:41:18;;;;;;;9.60;6.20;;;9.00;99.10;;;;;;5020130;28;20538;-80
2021/04/25 05:43:45;;;;;;;11.43;6.60;;;9.20;98.60;;;;;;5017910;28;20475;-80
2021/04/25 05:46:12;;;;;;;12.27;5.77;;;9.20;98.40;;;;;;5036013;28;20489;-79
2021/04/25 05:48:38;;;;;;;13.73;6.80;;;8.90;98.80;;;;;;5039283;28;20543;-80
2021/04/25 05:51:05;;;;;;;16.63;6.53;;;9.10;98.70;;;;;;5034808;28;20460;-80
2021/04/25 05:53:31;;;;;;;11.10;6.67;;;9.00;98.80;;;;;;5033876;28;20509;-80
2021/04/25 05:55:59;;;;;;;11.40;6.70;;;9.00;99.30;;;;;;5034050;28;20541;-79
2021/04/25 05:58:25;;;;;;;9.90;5.60;;;9.10;99.10;;;;;;5033222;28;20454;-79
2021/04/25 06:00:51;;;;;;;9.00;5.70;;;9.10;99.00;;;;;;5034377;28;20454;-80
2021/04/25 06:03:18;;;;;;;9.30;5.37;;;8.70;98.90;;;;;;5034150;28;20470;-80
2021/04/25 06:05:44;;;;;;;12.10;7.90;;;9.00;99.30;;;;;;5034062;28;20462;-80
2021/04/25 06:08:11;;;;;;;9.63;5.63;;;9.20;99.30;;;;;;5033686;28;20533;-80
2021/04/25 06:10:37;;;;;;;10.37;6.40;;;9.40;99.20;;;;;;5034336;28;20516;-80
2021/04/25 06:13:04;;;;;;;12.53;7.00;;;9.20;98.90;;;;;;5026564;28;20534;-79
2021/04/25 06:15:31;;;;;;;13.17;6.60;;;9.20;99.00;;;;;;5054359;28;20485;-80
2021/04/25 06:18:00;;;;;;;11.30;7.67;;;8.70;99.10;;;;;;5060097;28;20536;-80
2021/04/25 06:20:27;;;;;;;13.63;8.23;;;9.10;99.80;;;;;;5058991;28;20488;-79
2021/04/25 06:22:53;;;;;;;8.40;6.03;;;9.20;99.40;;;;;;5052183;28;20981;-80
2021/04/25 06:25:20;;;;;;;13.63;8.10;;;9.20;99.40;;;;;;5057472;28;20544;-79
2021/04/25 06:27:46;;;;;;;13.90;7.00;;;9.00;99.20;;;;;;5044690;28;20484;-80
2021/04/25 06:30:15;;;;;;;11.90;7.57;;;9.00;99.00;;;;;;5038019;28;20473;-80
2021/04/25 06:32:43;;;;;;;12.60;6.87;;;9.40;99.20;;;;;;5034864;28;20486;-81
2021/04/25 06:35:15;;;;;;;9.77;7.20;;;9.40;99.20;;;;;;5034216;28;20496;-80
2021/04/25 06:37:43;;;;;;;13.30;8.20;;;9.50;99.10;;;;;;5033742;28;20932;-80
2021/04/25 06:40:14;;;;;;;17.00;8.40;;;9.20;98.80;;;;;;5035492;28;20453;-80
2021/04/25 06:42:42;;;;;;;19.73;7.40;;;9.40;99.00;;;;;;5016201;28;20566;-80
2021/04/25 06:45:12;;;;;;;10.37;6.70;;;9.60;99.20;;;;;;5014232;28;20522;-81
2021/04/25 06:47:41;;;;;;;12.03;7.80;;;9.70;98.60;;;;;;5013946;28;20578;-80
2021/04/25 06:50:11;;;;;;;11.63;8.57;;;9.80;98.40;;;;;;5013646;28;20914;-80
2021/04/25 06:52:38;;;;;;;15.10;9.20;;;9.70;98.50;;;;;;5022086;28;20646;-80
2021/04/25 06:55:11;;;;;;;14.10;7.77;;;9.70;98.50;;;;;;5029772;28;20515;-80
2021/04/25 06:57:37;;;;;;;13.73;7.70;;;9.90;98.50;;;;;;5016556;28;20545;-80
2021/04/25 07:00:06;;;;;;;12.70;8.40;;;10.00;97.60;;;;;;5014328;28;20417;-80
2021/04/25 07:02:33;;;;;;;12.73;7.80;;;10.00;97.70;;;;;;5015650;28;20543;-80
2021/04/25 07:05:04;;;;;;;17.07;8.90;;;10.10;97.70;;;;;;5017706;28;20455;-81
2021/04/25 07:07:32;;;;;;;15.23;8.57;;;10.20;97.50;;;;;;5014496;28;20464;-81
2021/04/25 07:09:59;;;;;;;14.43;9.80;;;10.30;97.30;;;;;;5014839;28;20451;-80
2021/04/25 07:12:25;;;;;;;17.37;10.37;;;10.20;97.10;;;;;;5014815;28;20558;-79
2021/04/25 07:14:52;;;;;;;16.27;8.60;;;10.40;97.40;;;;;;5043730;28;20445;-80
2021/04/25 07:17:18;;;;;;;16.63;8.10;;;10.50;96.90;;;;;;5054295;28;20480;-79
2021/04/25 07:19:51;;;;;;;16.93;9.70;;;10.60;97.10;;;;;;5058446;28;20502;-80
2021/04/25 07:22:18;;;;;;;12.83;9.97;;;10.60;96.80;;;;;;5051794;28;20548;-80
2021/04/25 07:24:44;;;;;;;14.83;9.53;;;10.60;96.60;;;;;;5035006;28;20867;-80
2021/04/25 07:27:14;;;;;;;15.83;8.83;;;10.70;96.50;;;;;;5032834;28;20842;-80
2021/04/25 07:29:44;;;;;;;16.63;8.80;;;10.80;96.30;;;;;;5034404;28;20484;-80
2021/04/25 07:32:10;;;;;;;21.47;9.23;;;10.90;96.10;;;;;;5036394;28;20586;-80
2021/04/25 07:34:38;;;;;;;15.33;9.17;;;11.00;95.60;;;;;;5034676;28;20487;-80
2021/04/25 07:37:05;;;;;;;15.33;9.77;;;11.10;95.50;;;;;;5033148;28;20449;-81
2021/04/25 07:39:35;;;;;;;14.90;9.50;;;11.20;95.20;;;;;;5033346;28;20943;-80
2021/04/25 07:42:01;;;;;;;13.93;10.00;;;11.30;95.00;;;;;;5035472;28;20433;-80
2021/04/25 07:44:29;;;;;;;17.20;9.73;;;11.20;94.90;;;;;;5037023;28;20541;-80
2021/04/25 07:46:58;;;;;;;14.30;9.27;;;11.20;95.00;;;;;;5037548;28;20493;-81
2021/04/25 07:49:26;;;;;;;17.40;10.40;;;11.10;94.90;;;;;;5038175;28;20859;-80
2021/04/25 07:51:53;;;;;;;22.97;10.33;;;11.30;94.80;;;;;;5037922;28;20487;-80
2021/04/25 07:54:19;;;;;;;15.57;9.67;;;11.40;95.00;;;;;;5037138;28;20429;-80
2021/04/25 07:56:46;;;;;;;16.37;11.03;;;11.50;94.60;;;;;;5036523;28;20526;-80
2021/04/25 07:59:12;;;;;;;18.20;10.70;;;11.50;94.70;;;;;;5027893;28;20458;-80
2021/04/25 08:01:39;;;;;;;16.40;10.17;;;11.60;94.50;;;;;;5016889;28;20652;-80
2021/04/25 08:04:05;;;;;;;20.53;12.10;;;11.70;94.20;;;;;;5017209;28;20508;-80
2021/04/25 08:06:32;;;;;;;19.73;12.03;;;11.60;94.20;;;;;;5023812;28;20527;-80
2021/04/25 08:08:58;;;;;;;17.33;11.90;;;11.50;94.30;;;;;;5040394;28;20545;-81
2021/04/25 08:11:24;;;;;;;15.97;12.57;;;11.60;94.10;;;;;;5039645;28;20868;-80
2021/04/25 08:13:52;;;;;;;17.13;12.10;;;11.60;93.90;;;;;;5050111;28;20541;-80
2021/04/25 08:16:18;;;;;;;19.03;10.77;;;11.70;93.30;;;;;;5064116;28;20472;-80
2021/04/25 08:18:44;;;;;;;18.33;12.40;;;11.70;93.20;;;;;;5057015;28;20424;-81
2021/04/25 08:21:11;;;;;;;18.97;11.33;;;11.80;93.00;;;;;;5056509;28;20453;-80
2021/04/25 08:23:37;;;;;;;19.13;11.23;;;11.70;93.10;;;;;;5044035;28;20531;-81
2021/04/25 08:26:05;;;;;;;20.60;13.00;;;11.80;93.40;;;;;;5036314;28;20498;-80
2021/04/25 08:28:34;;;;;;;16.80;11.63;;;11.80;92.90;;;;;;5052542;28;20436;-80
2021/04/25 08:31:02;;;;;;;18.10;10.67;;;11.90;92.80;;;;;;5037744;28;20821;-80
2021/04/25 08:33:28;;;;;;;16.57;11.57;;;12.00;93.00;;;;;;5037762;28;20480;-80
2021/04/25 08:35:54;;;;;;;19.57;11.43;;;11.90;92.80;;;;;;5037999;28;20541;-80
2021/04/25 08:38:21;;;;;;;18.10;11.77;;;12.00;92.80;;;;;;5036467;28;20561;-80
2021/04/25 08:40:47;;;;;;;16.67;12.77;;;12.20;92.80;;;;;;5023612;28;20433;-80
2021/04/25 08:43:14;;;;;;;21.00;11.70;;;12.30;92.50;;;;;;5024210;28;20474;-80
2021/04/25 08:45:45;;;;;;;15.67;12.20;;;12.40;92.30;;;;;;5024014;28;20527;-80
2021/04/25 08:48:23;;;;;;;17.53;12.73;;;12.50;92.40;;;;;;5023026;28;21169;-80
2021/04/25 08:51:14;;;;;;;15.93;10.60;;;12.60;92.10;;;;;;5019173;28;20435;-81
2021/04/25 08:53:58;;;;;;;17.37;12.13;;;12.50;91.10;;;;;;5017300;28;20453;-81
2021/04/25 08:56:24;;;;;;;15.63;11.47;;;12.60;91.10;;;;;;5021898;28;20456;-81
2021/04/25 08:58:52;;;;;;;16.50;11.50;;;12.80;91.30;;;;;;5036528;28;20435;-81
2021/04/25 09:01:19;;;;;;;17.90;11.23;;;12.70;91.40;;;;;;5036468;28;20537;-81
2021/04/25 09:03:46;;;;;;;20.00;12.13;;;12.80;91.10;;;;;;5037446;28;20506;-80
2021/04/25 09:06:13;;;;;;;15.37;11.63;;;13.00;90.80;;;;;;5036594;28;20503;-81
2021/04/25 09:08:44;;;;;;;15.20;11.60;;;13.00;90.20;;;;;;5036948;28;20428;-81
2021/04/25 09:11:35;;;;;;;15.20;9.30;;;13.00;90.20;;;;;;5037180;28;20460;-81
2021/04/25 09:14:28;;;;;;;24.00;12.93;;;13.10;88.60;;;;;;5024048;28;20524;-80
2021/04/25 09:17:00;;;;;;;14.80;10.87;;;12.80;89.00;;;;;;5034851;28;20465;-80
2021/04/25 09:19:48;;;;;;;15.20;11.07;;;12.50;89.00;;;;;;5060207;28;20518;-80
2021/04/25 09:22:18;;;;;;;14.83;10.13;;;12.60;90.10;;;;;;5059230;28;20544;-80
2021/04/25 09:24:45;;;;;;;17.63;9.67;;;12.70;88.90;;;;;;5056383;28;20459;-80
2021/04/25 09:27:11;;;;;;;16.27;10.43;;;12.90;89.00;;;;;;5053567;28;20575;-80
2021/04/25 09:29:49;;;;;;;15.33;10.03;;;13.00;88.60;;;;;;5050090;28;20423;-80
2021/04/25 09:32:21;;;;;;;17.17;10.30;;;13.10;88.80;;;;;;5055712;28;20965;-80
2021/04/25 09:34:51;;;;;;;13.93;10.00;;;13.20;88.30;;;;;;5055293;28;20458;-80
2021/04/25 09:37:21;;;;;;;16.60;10.23;;;13.30;87.50;;;;;;5056240;28;20419;-80
2021/04/25 09:40:08;;;;;;;13.87;10.27;;;13.30;87.10;;;;;;5056256;28;20439;-80
2021/04/25 09:42:55;;;;;;;12.50;9.00;;;13.20;86.10;;;;;;5059251;28;20469;-81
2021/04/25 09:45:23;;;;;;;15.47;9.43;;;13.30;86.00;;;;;;5046522;28;20446;-80
2021/04/25 09:47:49;;;;;;;13.00;10.23;;;13.40;86.50;;;;;;5036153;28;20994;-81
2021/04/25 09:50:19;;;;;;;11.43;8.50;;;13.60;86.00;;;;;;5036756;28;20564;-81
2021/04/25 09:52:50;;;;;;;16.13;8.77;;;13.70;84.80;;;;;;5038467;28;20456;-79
2021/04/25 09:55:24;;;;;;;12.47;8.30;;;13.80;82.40;;;;;;5033696;28;20450;-79
2021/04/25 09:57:52;;;;;;;12.80;8.97;;;13.70;81.20;;;;;;5034504;28;20469;-81
2021/04/25 10:00:22;;;;;;;14.57;8.73;;;13.90;81.80;;;;;;5035400;28;20465;-80
2021/04/25 10:03:01;;;;;;;12.63;9.30;;;14.00;82.70;;;;;;5022995;28;20474;-81
2021/04/25 10:05:29;;;;;;;10.60;6.63;;;13.90;81.20;;;;;;5016502;28;20450;-81
2021/04/25 10:07:57;;;;;;;8.20;5.03;;;13.90;80.00;;;;;;5015304;28;20465;-81
2021/04/25 10:10:23;;;;;;;11.10;8.17;;;13.90;79.00;;;;;;5014881;28;21185;-82
2021/04/25 10:12:50;;;;;;;10.30;7.30;;;14.00;78.70;;;;;;5015211;28;20445;-80
2021/04/25 10:15:21;;;;;;;12.80;8.30;;;14.10;77.90;;;;;;5049662;28;20487;-80
2021/04/25 10:17:50;;;;;;;13.50;8.43;;;14.30;79.10;;;;;;5045526;28;20917;-80
2021/04/25 10:20:18;;;;;;;14.20;7.87;;;13.90;80.50;;;;;;5015482;28;20441;-80
2021/04/25 10:22:46;;;;;;;16.37;9.23;;;13.90;80.30;;;;;;5014256;28;20493;-80
2021/04/25 10:25:15;;;;;;;11.60;8.57;;;14.00;80.10;;;;;;5014394;28;20520;-81
2021/04/25 10:27:47;;;;;;;12.70;8.20;;;14.20;79.50;;;;;;5027433;28;20497;-80
2021/04/25 10:30:15;;;;;;;11.57;7.77;;;14.40;78.80;;;;;;5049760;28;20572;-80
2021/04/25 10:32:45;;;;;;;10.83;8.13;;;14.40;78.30;;;;;;5054843;28;20455;-80
2021/04/25 10:35:17;;;;;;;14.23;8.27;;;14.50;77.60;;;;;;5041269;28;20442;-80
2021/04/25 10:37:43;;;;;;;9.70;7.60;;;14.50;76.10;;;;;;5042717;28;20465;-81
2021/04/25 10:40:22;;;;;;;10.07;7.60;;;14.60;75.80;;;;;;5039466;28;20478;-80
2021/04/25 10:43:00;;;;;;;8.83;7.00;;;14.70;75.80;;;;;;5042314;28;20532;-80
2021/04/25 10:45:31;;;;;;;13.40;9.30;;;14.60;76.20;;;;;;5038242;28;20449;-80
2021/04/25 10:48:33;;;;;;;9.40;8.40;;;14.40;77.00;;;;;;5033245;28;20486;-80
2021/04/25 10:51:09;;;;;;;10.13;5.37;;;14.50;77.20;;;;;;5020532;28;20510;-80
2021/04/25 10:53:37;;;;;;;10.77;8.40;;;14.50;76.80;;;;;;5014438;28;20854;-81
2021/04/25 10:56:32;;;;;;;9.87;7.20;;;14.30;77.00;;;;;;5014115;28;20454;-80
2021/04/25 10:59:31;;;;;;;11.30;7.73;;;14.50;76.90;;;;;;5014226;28;20447;-82
2021/04/25 11:02:00;;;;;;;9.57;6.33;;;14.50;75.30;;;;;;5014272;28;20541;-80
2021/04/25 11:05:05;;;;;;;9.40;6.40;;;14.70;73.30;;;;;;5013945;28;20461;-80
2021/04/25 11:07:46;;;;;;;11.70;6.40;;;14.90;71.30;;;;;;5019248;28;20490;-80
2021/04/25 11:10:19;;;;;;;10.27;4.33;;;15.10;71.40;;;;;;5013584;28;20439;-80
2021/04/25 11:12:47;;;;;;;12.80;7.63;;;15.00;71.80;;;;;;5013857;28;20532;-80
2021/04/25 11:15:51;;;;;;;13.87;7.53;;;14.70;72.50;;;;;;5048597;28;20540;-79
2021/04/25 11:18:54;;;;;;;12.40;8.30;;;14.80;72.10;;;;;;5057414;28;20595;-78
2021/04/25 11:21:53;;;;;;;13.93;7.60;;;14.60;72.60;;;;;;5058060;28;21079;-80
2021/04/25 11:24:33;;;;;;;11.33;6.40;;;14.90;73.00;;;;;;5024054;28;20466;-80
2021/04/25 11:27:01;;;;;;;10.90;5.77;;;15.20;71.90;;;;;;5029251;28;20516;-80
2021/04/25 11:29:52;;;;;;;12.20;6.00;;;15.30;71.20;;;;;;5056252;28;20508;-80
2021/04/25 11:32:28;;;;;;;8.80;5.67;;;15.10;70.30;;;;;;5057629;28;20477;-80
2021/04/25 11:34:59;;;;;;;8.57;5.50;;;15.10;69.30;;;;;;5057472;28;20961;-80
2021/04/25 11:37:26;;;;;;;9.90;5.63;;;14.90;65.30;;;;;;5058716;28;20420;-80
2021/04/25 11:39:55;;;;;;;9.03;5.60;;;15.00;65.80;;;;;;5034364;28;20433;-80
2021/04/25 11:42:27;;;;;;;8.20;6.03;;;15.00;66.60;;;;;;5017905;28;21222;-80
2021/04/25 11:44:55;;;;;;;8.33;5.10;;;15.00;68.40;;;;;;5016888;28;20458;-81
2021/04/25 11:47:22;;;;;;;9.10;6.33;;;14.90;67.10;;;;;;5016969;28;20490;-82
2021/04/25 11:49:52;;;;;;;7.60;5.90;;;15.00;66.90;;;;;;5016712;28;20455;-80
2021/04/25 11:52:20;;;;;;;6.90;4.90;;;15.10;65.70;;;;;;5016959;28;20494;-80
2021/04/25 11:54:48;;;;;;;9.37;4.93;;;15.20;64.00;;;;;;5016647;28;20541;-80
2021/04/25 11:57:16;;;;;;;7.60;4.70;;;15.00;63.60;;;;;;5030020;28;20444;-80
2021/04/25 11:59:54;;;;;;;7.13;4.53;;;15.10;62.90;;;;;;5016475;28;20513;-82
2021/04/25 12:02:21;;;;;;;7.00;4.43;;;15.20;60.20;;;;;;5017667;28;20973;-80
2021/04/25 12:04:49;;;;;;;6.43;4.30;;;15.40;59.40;;;;;;5018213;28;20462;-80
2021/04/25 12:07:34;;;;;;;8.10;5.37;;;15.50;58.80;;;;;;5017638;28;20465;-80
2021/04/25 12:10:01;;;;;;;8.23;4.57;;;15.40;59.40;;;;;;5017044;28;20810;-80
2021/04/25 12:12:28;;;;;;;9.23;4.80;;;15.30;59.60;;;;;;5018794;28;20557;-80
2021/04/25 12:15:03;;;;;;;6.67;3.40;;;15.40;59.80;;;;;;5046415;28;20846;-80
2021/04/25 12:17:30;;;;;;;8.87;5.77;;;15.50;59.70;;;;;;5058099;28;20505;-80
2021/04/25 12:19:59;;;;;;;7.50;4.27;;;15.30;60.10;;;;;;5057758;28;20448;-81
2021/04/25 12:22:26;;;;;;;7.80;5.30;;;15.50;58.70;;;;;;5058052;28;20815;-80
2021/04/25 12:24:57;;;;;;;8.70;3.63;;;15.50;56.30;;;;;;5058428;28;20451;-81
2021/04/25 12:27:24;;;;;;;9.97;4.80;;;15.60;55.70;;;;;;5045920;28;20460;-80
2021/04/25 12:29:50;;;;;;;7.07;4.43;;;15.60;53.80;;;;;;5047028;28;20950;-81
2021/04/25 12:32:22;;;;;;;6.57;4.40;;;15.70;57.00;;;;;;5058380;28;20546;-81
2021/04/25 12:34:59;;;;;;;6.40;3.20;;;15.90;56.70;;;;;;5057890;28;20449;-81
2021/04/25 12:37:36;;;;;;;7.43;4.87;;;16.00;54.70;;;;;;5059098;28;20467;-81
2021/04/25 12:40:04;;;;;;;7.87;4.60;;;16.10;54.40;;;;;;5057930;28;20448;-80
2021/04/25 12:42:30;;;;;;;7.43;4.20;;;16.20;53.80;;;;;;5056552;28;20460;-80
2021/04/25 12:44:57;;;;;;;7.47;3.63;;;16.30;53.30;;;;;;5037398;28;20457;-78
2021/04/25 12:47:32;;;;;;;7.27;3.73;;;16.30;52.60;;;;;;5032010;28;20481;-78
2021/04/25 12:50:13;;;;;;;7.70;3.53;;;16.30;50.40;;;;;;5033542;28;20848;-78
2021/04/25 12:52:39;;;;;;;9.73;4.57;;;16.10;50.80;;;;;;5033163;28;21010;-78